x

La Perouse Bank (46206) Wave Buoy

8:00 - Tue 2nd Sep 2014 All times are PDT. -7 hours from GMT.

  • Sig Wave height 9.5ft
  • Peak Period 8s
  • Wind
    31mph, 38mph gusts
  • Sea Temp 60°f
  • Ar Temp 59°f
  • Sea Pressure 1011.7mb
  • La Perouse Bank
  • La Perouse Bank

More Historic Weather Station data

Upgrade to MSW Pro to gain access to the past 30 days of data for over 8000 Wavebouys and Weather Stations around the globe.

Join Pro

Comparision Forecast

View Surf forecast
   
Ter 09/02 8:00 9.5ft 8s 31 38 mph 1011.7mb 60f 59f
7:00 8.5ft 8s 29 38 mph 1011.4mb 60f 60f
6:00 8ft 7s 31 40 mph 1011.1mb 60f 60f
5:00 7ft 6s 29 36 mph 1011.4mb 60f 60f
4:00 7ft 9s 29 36 mph 1011.4mb 60f 60f
3:00 6ft 10s 27 34 mph 1011.5mb 60f 59f
2:00 5.5ft 10s 20 25 mph 1011.7mb 60f 60f
1:00 5ft 9s 13 16 mph 1012.2mb 60f 59f
12:00 5ft 9s 11 16 mph 1012.2mb 60f 58f
11:00 5ft 10s 9 11 mph 1012.2mb 60f 58f
10:00 5ft 10s 11 16 mph 1012.5mb 60f 58f
9:00 5ft 10s 9
mph
1012.4mb 61f 60f
8:00 5ft 9s 4 7 mph 1013.2mb 61f 60f
7:00 5ft 10s 7 9 mph 1013.8mb 60f 60f
6:00 5ft 9s 4 7 mph 1014.2mb 60f 60f
5:00 6ft 10s 9 11 mph 1014.6mb 59f 60f
4:00 6ft 10s 11 13 mph 1015.4mb 60f 60f
3:00 6ft 10s 13 16 mph 1015.7mb 60f 60f
2:00 6.5ft 10s 16 18 mph 1016.1mb 60f 60f
1:00 6.5ft 9s 16 20 mph 1016.6mb 60f 60f
12:00 7ft 8s 13 18 mph 1016.6mb 60f 60f
Seg 09/01 11:00 6ft 8s 16 18 mph 1016.8mb 60f 60f
10:00 5ft 9s 11 16 mph 1017.3mb 60f 61f
9:00 4.5ft 9s 9 11 mph 1017.6mb 60f 61f
8:00 4.5ft 8s 9 11 mph 1017.6mb 60f 61f
7:00 4.5ft 9s 9 11 mph 1017.7mb 61f 61f
6:00 4ft 9s 9 11 mph 1017.9mb 61f 62f
5:00 3.5ft 16s 4 7 mph 1018.3mb 63f 62f
4:00 3.5ft 10s 2
mph
1018.6mb 62f 63f
3:00 3.5ft 15s 2
mph
1018.7mb 62f 61f
2:00 3ft 9s 4
mph
1018.7mb 61f 60f
1:00 3.5ft 8s 7
mph
1018.7mb 61f 60f
12:00 3.5ft 8s 9 11 mph 1018.4mb 61f 59f
11:00 4.5ft 7s 9 11 mph 1018.4mb 60f 58f
10:00 4ft 8s 9 11 mph 1018.2mb 60f 59f
9:00 3.5ft 9s 7 9 mph 1018.2mb 61f 58f
8:00 3.5ft 15s 13 16 mph 1017.5mb 60f 58f
7:00 3.5ft 8s 11 13 mph 1017.5mb 60f 58f
6:00 3.5ft 9s 11 13 mph 1017.3mb 60f 59f
5:00 3.5ft 8s 13 16 mph 1017mb 60f 58f
4:00 3.5ft 9s 11 13 mph 1017.5mb 60f 59f
3:00 3.5ft 10s 11 16 mph 1017.6mb 60f 58f
2:00 3.5ft 10s 13 16 mph 1017.7mb 60f 58f
1:00 3.5ft 9s 13 16 mph 1018mb 60f 58f
12:00 4ft 9s 11 13 mph 1017.9mb 60f 59f
Dom 08/31 11:00 3.5ft 9s 7 9 mph 1017.8mb 60f 60f
10:00 4.5ft 9s 7
mph
1017.8mb 60f 60f
9:00 4.5ft 10s 4
mph
1017.8mb 60f 60f
8:00 4.5ft 9s 7 9 mph 1017.3mb 61f 60f
7:00 4.5ft 10s 4
mph
1017.7mb 61f 60f
6:00 4.5ft 10s 4
mph
1017.6mb 61f 60f
5:00 4.5ft 10s 2 4 mph 1017.5mb 60f 60f
3:00 4.5ft 10s 7
mph
1017.7mb 60f 58f
2:00 4.5ft 10s 7
mph
1018.4mb 60f 57f
1:00 4.5ft 10s 9
mph
1018.4mb 60f 56f
12:00 4.5ft 9s 9 11 mph 1018.4mb 60f 56f
11:00 5ft 9s 9 13 mph 1018.2mb 60f 56f
10:00 4.5ft 11s 9 13 mph 1017.9mb 60f 56f
9:00 5ft 10s 9 11 mph 1017.5mb 60f 57f
8:00 5.5ft 10s 7 9 mph 1016.9mb 60f 57f
7:00 6ft 12s 4 7 mph 1016.8mb 60f 57f
6:00 5.5ft 11s  -  mph 1016.5mb 60f 59f
5:00 6ft 10s 2 4 mph 1016.3mb 60f 59f
4:00 6ft 11s 4
mph
1016.2mb 60f 59f
3:00 5.5ft 11s 4 7 mph 1016.2mb 60f 59f
2:00 6ft 11s 7
mph
1015.8mb 60f 60f
1:00 5.5ft 9s 4 7 mph 1015.7mb 60f 60f
12:00 6ft 11s 7
mph
1015.5mb 60f 59f
Sáb 08/30 11:00 6ft 11s 2 4 mph 1015.1mb 60f 60f
10:00 6ft 11s 7 9 mph 1015.1mb 60f 60f
9:00 5.5ft 11s 9 11 mph 1015.1mb 60f 60f
8:00 6ft 11s 9 11 mph 1014.4mb 61f 60f
7:00 5.5ft 10s 9 11 mph 1014.1mb 61f 61f
6:00 5.5ft 11s 11 13 mph 1014.1mb 61f 62f
5:00 5.5ft 11s 9 11 mph 1013.9mb 61f 62f
4:00 6ft 12s 9 11 mph 1014mb 61f 62f
3:00 6ft 11s 9 11 mph 1013.7mb 61f 62f
2:00 5.5ft 10s 9 11 mph 1013.7mb 61f 61f
1:00 6ft 11s 4
mph
1013.6mb 61f 60f
12:00 7ft 11s  -  2 mph 1013.5mb 61f 60f
11:00 6ft 10s 2 4 mph 1013.4mb 60f 58f
10:00 6ft 11s 7
mph
1013.1mb 60f 60f
9:00 5ft 8s 7 9 mph 1012.8mb 59f 60f
8:00 5ft 8s 7 9 mph 1012.5mb 59f 59f
7:00 4.5ft 14s 9
mph
1012.4mb 59f 59f
6:00 4.5ft 13s 7 9 mph 1012.4mb 59f 57f
5:00 4.5ft 9s 7 9 mph 1012.3mb 59f 57f